createdAt,value
2018-11-22T12:15:52.757Z,21.50
2018-11-22T12:18:22.304Z,20.80
2018-11-22T12:20:51.481Z,20.93
2018-11-22T12:23:21.029Z,21.83
2018-11-22T12:25:50.316Z,20.70
2018-11-22T12:28:19.765Z,19.83
2018-11-22T12:30:49.511Z,22.30
2018-11-22T12:33:23.828Z,21.10
2018-11-22T12:35:58.531Z,21.77
2018-11-22T12:38:33.696Z,19.90
2018-11-22T12:41:03.478Z,19.60
2018-11-22T12:43:33.738Z,21.90
2018-11-22T12:46:03.258Z,21.90
2018-11-22T12:48:32.752Z,22.20
2018-11-22T12:51:02.330Z,20.37
2018-11-22T12:53:31.875Z,20.60
2018-11-22T12:56:01.422Z,20.80
2018-11-22T12:58:31.095Z,20.80
2018-11-22T13:01:00.692Z,20.97
2018-11-22T13:03:30.448Z,20.67
2018-11-22T13:06:00.042Z,19.63
2018-11-22T13:08:29.573Z,20.43
2018-11-22T13:10:59.139Z,21.10
2018-11-22T13:13:29.777Z,21.10
2018-11-22T13:15:59.508Z,19.80
2018-11-22T13:18:29.118Z,20.10
2018-11-22T13:20:58.714Z,21.67
2018-11-22T13:23:28.207Z,21.47
2018-11-22T13:25:57.490Z,21.33
2018-11-22T13:28:26.722Z,20.70
2018-11-22T13:30:56.317Z,19.87
2018-11-22T13:33:25.940Z,20.60
2018-11-22T13:35:55.681Z,20.60
2018-11-22T13:38:25.660Z,21.27
2018-11-22T13:40:56.063Z,20.33
2018-11-22T13:43:25.468Z,21.07
2018-11-22T13:45:54.834Z,21.20
2018-11-22T13:48:24.504Z,21.87
2018-11-22T13:50:53.890Z,20.20
2018-11-22T13:53:23.378Z,21.43
2018-11-22T13:55:52.865Z,21.27
2018-11-22T13:58:22.042Z,17.93
2018-11-22T14:00:51.506Z,19.77
2018-11-22T14:03:20.985Z,20.17
2018-11-22T14:05:50.658Z,20.20
2018-11-22T14:08:19.992Z,19.40
2018-11-22T14:10:49.860Z,20.40
2018-11-22T14:13:19.152Z,20.23
2018-11-22T14:15:48.478Z,19.70
2018-11-22T14:18:18.086Z,19.67
2018-11-22T14:20:47.389Z,21.00
2018-11-22T14:23:16.916Z,20.50
2018-11-22T14:25:49.221Z,19.50
2018-11-22T14:28:16.065Z,22.00
2018-11-22T14:30:45.721Z,21.00
2018-11-22T14:33:14.854Z,20.67
2018-11-22T14:35:44.186Z,20.63
2018-11-22T14:38:13.890Z,20.80
2018-11-22T14:40:43.822Z,22.77
2018-11-22T14:43:13.425Z,22.33
2018-11-22T14:45:43.132Z,22.97
2018-11-22T14:48:12.913Z,22.63
2018-11-22T14:50:44.713Z,21.07
2018-11-22T14:53:19.018Z,22.97
2018-11-22T14:55:48.532Z,22.67
2018-11-22T14:58:17.688Z,22.23
2018-11-22T15:00:47.122Z,21.67
2018-11-22T15:03:16.580Z,21.00
2018-11-22T15:05:45.908Z,20.70
2018-11-22T15:08:15.353Z,21.00
2018-11-22T15:10:45.272Z,22.70
2018-11-22T15:13:14.263Z,19.77
2018-11-22T15:15:44.135Z,20.30
2018-11-22T15:18:13.785Z,21.50
2018-11-22T15:20:43.105Z,21.07
2018-11-22T15:23:13.103Z,22.33
2018-11-22T15:25:42.935Z,19.20
2018-11-22T15:28:11.952Z,20.57
2018-11-22T15:30:41.408Z,20.90
2018-11-22T15:33:11.157Z,23.20
2018-11-22T15:35:40.663Z,20.53
2018-11-22T15:38:10.066Z,21.07
2018-11-22T15:40:39.779Z,20.70
2018-11-22T15:43:09.286Z,19.40
2018-11-22T15:45:38.772Z,21.73
2018-11-22T15:48:08.604Z,21.77
2018-11-22T15:50:38.417Z,20.27
2018-11-22T15:53:08.126Z,22.53
2018-11-22T15:55:38.006Z,19.33
2018-11-22T15:58:07.954Z,21.07
2018-11-22T16:00:37.457Z,21.33
2018-11-22T16:03:06.859Z,22.67
2018-11-22T16:05:36.069Z,20.73
2018-11-22T16:08:05.520Z,20.27
2018-11-22T16:10:35.930Z,21.80
2018-11-22T16:13:12.137Z,20.97
2018-11-22T16:15:45.388Z,20.10
2018-11-22T16:18:14.971Z,19.40
2018-11-22T16:20:44.282Z,22.80
2018-11-22T16:23:13.649Z,20.90
2018-11-22T16:25:43.258Z,20.93
2018-11-22T16:28:12.574Z,19.97
2018-11-22T16:30:42.474Z,20.00
2018-11-22T16:33:12.110Z,21.97
2018-11-22T16:35:41.470Z,19.47
2018-11-22T16:38:11.012Z,20.57
2018-11-22T16:40:40.282Z,21.10
2018-11-22T16:43:09.724Z,22.20
2018-11-22T16:45:39.358Z,21.80
2018-11-22T16:48:10.371Z,20.40
2018-11-22T16:50:40.261Z,24.00
2018-11-22T16:53:09.343Z,21.13
2018-11-22T16:55:38.977Z,21.90
2018-11-22T16:58:08.892Z,20.20
2018-11-22T17:00:39.368Z,20.30
2018-11-22T17:03:11.061Z,22.10
2018-11-22T17:05:40.990Z,21.90
2018-11-22T17:08:10.651Z,20.20
2018-11-22T17:10:40.566Z,20.10
2018-11-22T17:13:10.182Z,20.13
2018-11-22T17:15:40.747Z,20.03
2018-11-22T17:18:10.885Z,20.00
2018-11-22T17:20:40.228Z,21.10
2018-11-22T17:23:09.620Z,20.23
2018-11-22T17:25:39.111Z,21.97
2018-11-22T17:28:09.429Z,20.83
2018-11-22T17:30:41.265Z,21.30
2018-11-22T17:33:10.516Z,20.20
2018-11-22T17:35:40.649Z,20.67
2018-11-22T17:38:11.389Z,21.00
2018-11-22T17:40:44.345Z,20.00
2018-11-22T17:43:13.960Z,19.13
2018-11-22T17:45:44.974Z,22.13
2018-11-22T17:48:14.496Z,21.43
2018-11-22T17:50:44.883Z,20.60
2018-11-22T17:53:14.620Z,21.50
2018-11-22T17:55:43.893Z,19.27
2018-11-22T17:58:13.680Z,21.20
2018-11-22T18:00:57.239Z,20.53
2018-11-22T18:03:27.000Z,19.70
2018-11-22T18:05:56.292Z,20.43
2018-11-22T18:08:25.804Z,22.80
2018-11-22T18:10:55.043Z,20.87
2018-11-22T18:13:24.577Z,20.80
2018-11-22T18:16:00.208Z,21.53
2018-11-22T18:18:29.964Z,21.60
2018-11-22T18:20:59.462Z,21.37
2018-11-22T18:23:29.177Z,20.50
2018-11-22T18:25:58.633Z,21.00
2018-11-22T18:28:27.987Z,20.17
2018-11-22T18:30:57.522Z,19.67
2018-11-22T18:33:27.319Z,21.17
2018-11-22T18:35:56.472Z,21.40
2018-11-22T18:38:26.067Z,21.30
2018-11-22T18:40:55.465Z,19.53
2018-11-22T18:43:25.052Z,22.63
2018-11-22T18:45:54.527Z,21.90
2018-11-22T18:48:23.871Z,22.53
2018-11-22T18:50:53.284Z,22.10
2018-11-22T18:53:22.619Z,23.53
2018-11-22T18:55:52.353Z,20.67
2018-11-22T18:58:21.656Z,22.93
2018-11-22T19:00:51.063Z,22.53
2018-11-22T19:03:20.717Z,22.17
2018-11-22T19:05:49.952Z,22.00
2018-11-22T19:08:19.279Z,22.67
2018-11-22T19:10:48.625Z,22.47
2018-11-22T19:13:17.857Z,23.10
2018-11-22T19:15:48.037Z,22.83
2018-11-22T19:18:17.771Z,21.43
2018-11-22T19:20:46.970Z,21.53
2018-11-22T19:23:17.261Z,22.70
2018-11-22T19:25:46.428Z,23.50
2018-11-22T19:28:15.638Z,21.50
2018-11-22T19:30:46.145Z,21.63
2018-11-22T19:33:16.927Z,23.40
2018-11-22T19:35:47.814Z,24.07
2018-11-22T19:38:17.629Z,22.97
2018-11-22T19:40:47.085Z,23.20
2018-11-22T19:43:17.100Z,22.47
2018-11-22T19:45:48.116Z,23.03
2018-11-22T19:48:17.510Z,21.50
2018-11-22T19:50:46.967Z,23.20
2018-11-22T19:53:17.037Z,20.63
2018-11-22T19:55:46.414Z,23.40
2018-11-22T19:58:16.919Z,25.03
2018-11-22T20:00:46.153Z,22.30
2018-11-22T20:03:15.478Z,25.20
2018-11-22T20:05:45.020Z,24.03
2018-11-22T20:08:16.306Z,23.53
2018-11-22T20:10:46.392Z,25.77
2018-11-22T20:13:15.991Z,24.47
2018-11-22T20:15:45.098Z,23.33
2018-11-22T20:18:14.511Z,23.50
2018-11-22T20:20:49.488Z,24.70
2018-11-22T20:23:14.024Z,25.63
2018-11-22T20:25:43.919Z,23.60
2018-11-22T20:28:13.233Z,23.43
2018-11-22T20:30:44.010Z,23.90
2018-11-22T20:33:13.624Z,23.80
2018-11-22T20:35:43.120Z,24.63
2018-11-22T20:38:12.554Z,23.60
2018-11-22T20:40:42.050Z,27.00
2018-11-22T20:43:11.422Z,25.97
2018-11-22T20:45:41.312Z,24.30
2018-11-22T20:48:10.516Z,24.50
2018-11-22T20:50:39.832Z,25.50
2018-11-22T20:53:09.267Z,24.67
2018-11-22T20:55:39.578Z,25.30
2018-11-22T20:58:08.705Z,24.60
2018-11-22T21:00:39.593Z,24.13
2018-11-22T21:03:09.209Z,23.73
2018-11-22T21:05:38.405Z,25.67
2018-11-22T21:08:07.898Z,23.53
2018-11-22T21:10:38.093Z,22.97
2018-11-22T21:13:07.548Z,28.47
2018-11-22T21:15:37.444Z,25.37
2018-11-22T21:18:08.211Z,23.73
2018-11-22T21:20:39.155Z,26.67
2018-11-22T21:23:08.449Z,24.83
2018-11-22T21:25:38.285Z,27.30
2018-11-22T21:28:07.723Z,25.53
2018-11-22T21:30:38.355Z,24.53
2018-11-22T21:33:07.942Z,23.40
2018-11-22T21:35:37.920Z,24.63
2018-11-22T21:38:08.361Z,25.53
2018-11-22T21:40:37.696Z,28.83
2018-11-22T21:43:07.431Z,27.07
2018-11-22T21:45:37.025Z,26.27
2018-11-22T21:48:06.622Z,24.07
2018-11-22T21:50:35.997Z,25.70
2018-11-22T21:53:05.231Z,24.30
2018-11-22T21:55:34.827Z,25.90
2018-11-22T21:58:04.663Z,26.47
2018-11-22T22:00:38.939Z,24.53
2018-11-22T22:03:09.834Z,22.83
2018-11-22T22:05:39.633Z,26.23
2018-11-22T22:08:09.122Z,26.60
2018-11-22T22:10:38.300Z,24.90
2018-11-22T22:13:07.774Z,22.27
2018-11-22T22:15:37.868Z,22.10
2018-11-22T22:18:08.044Z,24.70
2018-11-22T22:20:37.459Z,23.10
2018-11-22T22:23:07.161Z,25.17
2018-11-22T22:25:36.435Z,25.40
2018-11-22T22:28:05.845Z,24.73
2018-11-22T22:30:35.661Z,24.90
2018-11-22T22:33:05.988Z,26.50
2018-11-22T22:35:35.431Z,25.70
2018-11-22T22:38:04.789Z,25.23
2018-11-22T22:40:34.481Z,25.93
2018-11-22T22:43:03.698Z,23.97
2018-11-22T22:45:33.712Z,23.87
2018-11-22T22:48:03.107Z,23.23
2018-11-22T22:50:33.526Z,25.27
2018-11-22T22:53:02.738Z,24.83
2018-11-22T22:55:32.156Z,23.67
2018-11-22T22:58:01.573Z,25.00
2018-11-22T23:00:36.513Z,23.90
2018-11-22T23:03:07.177Z,23.60
2018-11-22T23:05:37.114Z,24.00
2018-11-22T23:08:06.673Z,23.50
2018-11-22T23:10:36.476Z,22.17
2018-11-22T23:13:06.279Z,22.10
2018-11-22T23:15:35.716Z,23.40
2018-11-22T23:18:05.314Z,24.07
2018-11-22T23:20:35.648Z,21.73
2018-11-22T23:23:05.284Z,24.20
2018-11-22T23:25:36.796Z,22.20
2018-11-22T23:28:06.164Z,23.67
2018-11-22T23:30:36.051Z,23.70
2018-11-22T23:33:06.803Z,22.80
2018-11-22T23:35:36.125Z,22.70
2018-11-22T23:38:05.955Z,22.63
2018-11-22T23:40:35.787Z,22.80
2018-11-22T23:43:06.208Z,25.30
2018-11-22T23:45:35.139Z,25.00
2018-11-22T23:48:04.530Z,22.87
2018-11-22T23:50:34.708Z,22.83
2018-11-22T23:53:04.984Z,23.30
2018-11-22T23:55:34.253Z,23.13
2018-11-22T23:58:03.375Z,24.20
